クグルクトゥク の空港の天気 - METARとTAF

Coppermine ( CYCO / YCO ) - カナダ ヌナブト準州Kugluktuk
飛行場実況気象(Metar)
観測時間05/25 16:00 MDT (05/25 22:00 UTC)
風向・風速東 6m/s
視程10km以上
天気現象
少しの雲 雲底高度 90m
少しの雲 雲底高度 370m
少しの雲 雲底高度 910m
全天の4割程度の雲 雲底高度 3050m
気温-1℃
湿度86%
気圧1015.7hPa
METARCYCO 252200Z 08012KT 15SM FEW003 FEW012 FEW030 SCT100 BKN250 M01/M03 A2998 RMK ST1SC1SC1AS1CI3 ST TR SLP157
過去の天気等 Google飛行場航空写真 Wunderground天気予報

過去48時間のMETAR

飛行場予報(TAF)
発表時間: 5/25 15:42 MDT (5/25 21:42 UTC)
予報対象時間: 25日15時 MDT ~ 26日1時 MDT
風向・風速東 5m/s
視程10km以上
少しの雲 雲底高度 90m
全天の4割程度の雲 雲底高度 370m
25日15時 MDT ~ 26日1時 MDT に一時的に
全天の4割程度の雲 雲底高度 90m
全天の8割程度の雲 雲底高度 370m
TAF AMD CYCO 252142Z 2521/2607 08010KT P6SM FEW003 SCT012
TEMPO 2521/2607 SCT003 BKN012 RMK NXT FCST BY 260100Z